Time;durP1;ratioP1;P1;durP2;ratioP2;P2;SDS_P1;SDS_P2;PMS_P1;PMS_P2;Temp;Humidity;BMP_temperature;BMP_pressure;BME280_temperature;BME280_humidity;BME280_pressure;Samples;Min_cycle;Max_cycle;Signal;HPM_P1;HPM_P2
2024/03/05 00:00:24;;;;;;;;;;;;;;;7.92;81.53;95790.13;7399141;19;1072;-71
2024/03/05 00:02:53;;;;;;;;;;;;;;;8.04;80.99;95794.81;7399406;19;1214;-70
2024/03/05 00:05:21;;;;;;;;;;;;;;;8.13;79.24;95791.00;7399274;19;1063;-67
2024/03/05 00:07:53;;;;;;;;;;;;;;;8.17;79.87;95787.38;7399046;19;1807;-68
2024/03/05 00:10:21;;;;;;;;;;;;;;;8.21;77.80;95788.97;7399232;19;990;-65
2024/03/05 00:12:50;;;;;;;;;;;;;;;8.28;77.48;95784.31;7398894;19;912;-64
2024/03/05 00:15:18;;;;;;;;;;;;;;;8.38;77.66;95784.81;7398814;19;1889;-69
2024/03/05 00:17:47;;;;;;;;;;;;;;;8.43;77.24;95775.03;7397558;19;1842;-68
2024/03/05 00:20:19;;;;;;;;;;;;;;;8.45;77.35;95782.78;7398680;19;1614;-71
2024/03/05 00:22:48;;;;;;;;;;;;;;;8.39;79.19;95778.69;7398764;19;1010;-67
2024/03/05 00:25:19;;;;;;;;;;;;;;;8.34;80.47;95771.06;7397426;19;996;-68
2024/03/05 00:27:48;;;;;;;;;;;;;;;8.41;80.31;95776.88;7398090;19;1131;-67
2024/03/05 00:30:18;;;;;;;;;;;;;;;8.35;77.52;95766.69;7398328;19;968;-69
2024/03/05 00:32:47;;;;;;;;;;;;;;;8.38;77.71;95761.34;7397907;19;1073;-70
2024/03/05 00:35:16;;;;;;;;;;;;;;;8.43;77.99;95748.97;7397778;19;1083;-66
2024/03/05 00:37:44;;;;;;;;;;;;;;;8.49;77.67;95749.63;7397040;19;1853;-66
2024/03/05 00:40:14;;;;;;;;;;;;;;;8.43;79.96;95741.16;7397750;19;1076;-70
2024/03/05 00:42:45;;;;;;;;;;;;;;;8.26;81.63;95735.81;7397744;19;1030;-70
2024/03/05 00:45:17;;;;;;;;;;;;;;;8.27;81.86;95734.88;7398075;19;949;-71
2024/03/05 00:47:45;;;;;;;;;;;;;;;8.02;82.96;95728.09;7397470;19;1037;-66
2024/03/05 00:50:14;;;;;;;;;;;;;;;7.99;83.57;95723.00;7397888;19;1025;-70
2024/03/05 00:52:43;;;;;;;;;;;;;;;7.92;84.09;95720.63;7397661;19;1726;-69
2024/03/05 00:55:11;;;;;;;;;;;;;;;7.88;83.94;95724.28;7397212;19;1869;-70
2024/03/05 00:57:40;;;;;;;;;;;;;;;7.95;83.76;95722.28;7396818;19;1855;-73
2024/03/05 01:00:13;;;;;;;;;;;;;;;8.04;82.79;95718.47;7397347;19;1847;-67
2024/03/05 01:02:42;;;;;;;;;;;;;;;8.01;82.79;95721.19;7397042;19;1120;-69
2024/03/05 01:05:12;;;;;;;;;;;;;;;8.13;82.61;95714.63;7397268;19;1914;-69
2024/03/05 01:07:41;;;;;;;;;;;;;;;8.21;82.03;95712.53;7397305;19;1055;-73
2024/03/05 01:10:10;;;;;;;;;;;;;;;8.27;81.39;95714.91;7394927;19;1144;-67
2024/03/05 01:12:40;;;;;;;;;;;;;;;8.24;81.31;95707.19;7396578;19;1076;-70
2024/03/05 01:15:12;;;;;;;;;;;;;;;8.22;81.25;95703.84;7396577;19;1031;-66
2024/03/05 01:17:41;;;;;;;;;;;;;;;8.31;80.74;95700.81;7396084;19;1845;-64
2024/03/05 01:20:15;;;;;;;;;;;;;;;8.24;80.29;95699.38;7396601;19;1948;-71
2024/03/05 01:22:44;;;;;;;;;;;;;;;8.19;80.14;95690.94;7396300;19;1064;-70
2024/03/05 01:25:12;;;;;;;;;;;;;;;8.04;80.99;95693.25;7397073;19;1818;-68
2024/03/05 01:27:41;;;;;;;;;;;;;;;8.03;80.97;95694.16;7396299;19;1796;-71
2024/03/05 01:30:13;;;;;;;;;;;;;;;8.06;81.30;95695.78;7396099;19;1115;-72
2024/03/05 01:32:43;;;;;;;;;;;;;;;8.09;80.80;95691.31;7396391;19;956;-67
2024/03/05 01:35:12;;;;;;;;;;;;;;;8.15;79.54;95686.75;7395871;19;1009;-69
2024/03/05 01:37:41;;;;;;;;;;;;;;;8.12;80.06;95681.69;7392895;19;1876;-66
2024/03/05 01:40:11;;;;;;;;;;;;;;;8.01;80.55;95684.72;7396579;19;1747;-68
2024/03/05 01:42:40;;;;;;;;;;;;;;;8.03;80.47;95678.53;7395566;19;1096;-68
2024/03/05 01:45:09;;;;;;;;;;;;;;;8.06;80.32;95680.16;7396090;19;1034;-68
2024/03/05 01:47:40;;;;;;;;;;;;;;;8.11;79.73;95672.16;7395459;19;1119;-65
2024/03/05 01:50:09;;;;;;;;;;;;;;;8.04;80.60;95672.41;7395806;19;1057;-72
2024/03/05 01:52:37;;;;;;;;;;;;;;;7.93;81.30;95672.03;7396187;19;1735;-72
2024/03/05 01:55:09;;;;;;;;;;;;;;;7.87;82.07;95667.06;7395806;19;1036;-76
2024/03/05 01:57:38;;;;;;;;;;;;;;;7.83;82.40;95664.56;7395272;19;1853;-71
2024/03/05 02:00:09;;;;;;;;;;;;;;;7.80;82.49;95674.28;7395192;19;1139;-68
2024/03/05 02:02:41;;;;;;;;;;;;;;;7.78;81.75;95676.09;7395115;19;1069;-65
2024/03/05 02:05:09;;;;;;;;;;;;;;;7.81;81.33;95662.97;7395086;19;1119;-70
2024/03/05 02:07:38;;;;;;;;;;;;;;;7.83;81.23;95668.97;7394847;19;1025;-72
2024/03/05 02:10:07;;;;;;;;;;;;;;;7.93;80.56;95666.81;7394044;19;1895;-67
2024/03/05 02:12:36;;;;;;;;;;;;;;;7.99;80.47;95669.16;7395095;19;1824;-73
2024/03/05 02:15:04;;;;;;;;;;;;;;;7.90;80.39;95667.78;7395044;19;1837;-66
2024/03/05 02:17:33;;;;;;;;;;;;;;;7.82;80.83;95670.69;7394698;19;1857;-73
2024/03/05 02:20:05;;;;;;;;;;;;;;;7.85;80.76;95669.72;7395416;19;1030;-73
2024/03/05 02:22:35;;;;;;;;;;;;;;;7.91;80.98;95666.88;7394918;19;976;-65
2024/03/05 02:25:05;;;;;;;;;;;;;;;7.96;80.77;95659.72;7394977;19;1032;-68
2024/03/05 02:27:33;;;;;;;;;;;;;;;8.02;79.64;95661.22;7394319;19;1009;-67
2024/03/05 02:30:02;;;;;;;;;;;;;;;8.05;78.68;95666.31;7394766;19;981;-67
2024/03/05 02:32:43;;;;;;;;;;;;;;;8.07;78.49;95661.03;7394167;19;1097;-68
2024/03/05 02:35:13;;;;;;;;;;;;;;;8.11;77.92;95667.81;7394130;19;1098;-64
2024/03/05 02:37:44;;;;;;;;;;;;;;;8.11;75.95;95667.81;7393747;19;1852;-69
2024/03/05 02:40:13;;;;;;;;;;;;;;;7.94;76.24;95676.31;7393898;19;1033;-67
2024/03/05 02:42:41;;;;;;;;;;;;;;;7.91;76.22;95666.00;7394245;19;1808;-69
2024/03/05 02:45:11;;;;;;;;;;;;;;;7.91;76.10;95671.22;7394328;19;1043;-67
2024/03/05 02:47:40;;;;;;;;;;;;;;;7.93;75.63;95666.81;7393877;19;1287;-72
2024/03/05 02:50:10;;;;;;;;;;;;;;;7.94;75.78;95666.75;7400814;19;1018;-72
2024/03/05 02:52:39;;;;;;;;;;;;;;;7.96;75.02;95671.91;7401252;19;1147;-70
2024/03/05 02:55:11;;;;;;;;;;;;;;;7.94;75.26;95671.09;7401660;19;1031;-72
2024/03/05 02:57:41;;;;;;;;;;;;;;;7.96;75.54;95675.34;7400840;19;1834;-71
2024/03/05 03:00:18;;;;;;;;;;;;;;;8.01;75.67;95664.72;7401417;19;1143;-68
2024/03/05 03:02:47;;;;;;;;;;;;;;;7.99;75.21;95666.56;7401330;19;1034;-70
2024/03/05 03:05:16;;;;;;;;;;;;;;;7.99;74.70;95669.16;7401381;19;937;-66
2024/03/05 03:07:45;;;;;;;;;;;;;;;8.00;74.23;95659.59;7400736;19;1045;-72
2024/03/05 03:10:16;;;;;;;;;;;;;;;8.01;73.74;95656.09;7398613;19;1924;-70
2024/03/05 03:12:45;;;;;;;;;;;;;;;7.97;74.17;95655.34;7400609;19;1213;-71
2024/03/05 03:15:13;;;;;;;;;;;;;;;7.97;74.05;95664.03;7400852;19;1915;-65
2024/03/05 03:17:43;;;;;;;;;;;;;;;7.95;73.22;95665.00;7400779;19;1841;-70
2024/03/05 03:20:15;;;;;;;;;;;;;;;7.88;73.23;95660.94;7400679;19;1208;-64
2024/03/05 03:22:43;;;;;;;;;;;;;;;7.83;74.00;95653.34;7400231;19;1159;-71
2024/03/05 03:25:12;;;;;;;;;;;;;;;7.80;73.93;95659.50;7400612;19;972;-68
2024/03/05 03:27:43;;;;;;;;;;;;;;;7.79;73.70;95660.41;7400635;19;1031;-67
2024/03/05 03:30:17;;;;;;;;;;;;;;;7.76;74.07;95646.66;7399992;19;1857;-70
2024/03/05 03:32:46;;;;;;;;;;;;;;;7.72;74.86;95653.75;7400434;19;960;-67
2024/03/05 03:35:15;;;;;;;;;;;;;;;7.73;74.28;95652.84;7400377;19;1019;-67
2024/03/05 03:37:43;;;;;;;;;;;;;;;7.66;74.94;95649.66;7400303;19;960;-65
2024/03/05 03:40:17;;;;;;;;;;;;;;;7.65;74.74;95649.72;7397377;19;1901;-70
2024/03/05 03:42:49;;;;;;;;;;;;;;;7.61;74.80;95645.56;7400051;19;980;-65
2024/03/05 03:45:18;;;;;;;;;;;;;;;7.50;77.20;95646.84;7400053;19;1016;-67
2024/03/05 03:47:47;;;;;;;;;;;;;;;7.48;78.42;95653.00;7399945;19;1030;-70
2024/03/05 03:50:15;;;;;;;;;;;;;;;7.52;78.98;95647.59;7399893;19;960;-70
2024/03/05 03:52:44;;;;;;;;;;;;;;;7.43;79.43;95640.16;7400052;19;1758;-68
2024/03/05 03:55:13;;;;;;;;;;;;;;;7.45;79.61;95641.81;7399263;19;1052;-64
2024/03/05 03:57:42;;;;;;;;;;;;;;;7.44;80.25;95640.09;7399603;19;965;-67
2024/03/05 04:00:16;;;;;;;;;;;;;;;7.42;81.54;95641.06;7394713;19;1842;-65
2024/03/05 04:02:45;;;;;;;;;;;;;;;7.55;81.23;95644.03;7399400;19;1047;-68
2024/03/05 04:05:13;;;;;;;;;;;;;;;7.67;80.76;95640.06;7399445;19;1036;-71
2024/03/05 04:07:42;;;;;;;;;;;;;;;7.76;80.41;95644.91;7398808;19;1119;-74
2024/03/05 04:10:11;;;;;;;;;;;;;;;7.78;80.45;95645.72;7396463;19;1115;-71
2024/03/05 04:12:41;;;;;;;;;;;;;;;7.79;79.92;95642.19;7398957;19;1723;-67
2024/03/05 04:15:12;;;;;;;;;;;;;;;7.88;79.79;95642.69;7398933;19;1853;-67
2024/03/05 04:17:44;;;;;;;;;;;;;;;7.92;79.67;95646.91;7398981;19;961;-68
2024/03/05 04:20:14;;;;;;;;;;;;;;;7.97;78.06;95643.19;7396787;19;1852;-66
2024/03/05 04:22:43;;;;;;;;;;;;;;;8.01;78.33;95646.50;7397678;19;1116;-71
2024/03/05 04:25:13;;;;;;;;;;;;;;;7.97;76.40;95647.53;7398581;19;1023;-68
2024/03/05 04:27:45;;;;;;;;;;;;;;;7.94;75.94;95643.31;7398610;19;956;-69
2024/03/05 04:30:14;;;;;;;;;;;;;;;7.89;75.38;95644.41;7398606;19;976;-69
2024/03/05 04:32:49;;;;;;;;;;;;;;;7.87;75.25;95651.44;7397993;19;1148;-66
2024/03/05 04:35:18;;;;;;;;;;;;;;;7.80;74.93;95653.47;7397986;19;1017;-71
2024/03/05 04:37:46;;;;;;;;;;;;;;;7.75;74.92;95643.22;7397891;19;1119;-70
2024/03/05 04:40:15;;;;;;;;;;;;;;;7.70;75.69;95645.16;7396177;19;1845;-67
2024/03/05 04:42:44;;;;;;;;;;;;;;;7.70;75.32;95647.75;7398003;19;1058;-70
2024/03/05 04:45:13;;;;;;;;;;;;;;;7.66;76.08;95652.25;7397597;19;1069;-69
2024/03/05 04:47:41;;;;;;;;;;;;;;;7.64;75.62;95648.00;7397731;19;1896;-67
2024/03/05 04:50:14;;;;;;;;;;;;;;;7.61;74.54;95654.19;7397751;19;1784;-71
2024/03/05 04:52:42;;;;;;;;;;;;;;;7.50;74.95;95648.59;7397358;19;1037;-66
2024/03/05 04:55:12;;;;;;;;;;;;;;;7.51;76.03;95650.28;7397721;19;1031;-71
2024/03/05 04:57:40;;;;;;;;;;;;;;;7.49;76.57;95655.53;7397538;19;1107;-66
2024/03/05 05:00:19;;;;;;;;;;;;;;;7.45;76.29;95660.03;7396016;19;1846;-67
2024/03/05 05:02:48;;;;;;;;;;;;;;;7.44;77.00;95647.91;7397377;19;1044;-69
2024/03/05 05:05:19;;;;;;;;;;;;;;;7.47;77.35;95652.16;7397450;19;954;-69
2024/03/05 05:07:48;;;;;;;;;;;;;;;7.51;77.16;95651.13;7397233;19;1103;-70
2024/03/05 05:10:16;;;;;;;;;;;;;;;7.56;75.81;95659.59;7394981;19;1823;-65
2024/03/05 05:12:45;;;;;;;;;;;;;;;7.62;75.98;95655.91;7396571;19;1828;-64
2024/03/05 05:15:14;;;;;;;;;;;;;;;7.66;75.17;95641.84;7396764;19;847;-67
2024/03/05 05:17:44;;;;;;;;;;;;;;;7.70;75.12;95643.41;7396369;19;1108;-68
2024/03/05 05:20:15;;;;;;;;;;;;;;;7.75;74.79;95640.63;7394942;19;1845;-70
2024/03/05 05:22:46;;;;;;;;;;;;;;;7.79;74.71;95642.19;7396314;19;1083;-66
2024/03/05 05:25:16;;;;;;;;;;;;;;;7.88;74.86;95646.16;7396765;19;1006;-71
2024/03/05 05:27:44;;;;;;;;;;;;;;;7.99;74.89;95643.13;7396217;19;1111;-67
2024/03/05 05:30:13;;;;;;;;;;;;;;;8.09;74.28;95639.22;7396466;19;1908;-71
2024/03/05 05:32:42;;;;;;;;;;;;;;;8.22;73.38;95636.09;7396071;19;1041;-67
2024/03/05 05:35:10;;;;;;;;;;;;;;;8.25;73.23;95627.28;7396405;19;989;-71
2024/03/05 05:37:39;;;;;;;;;;;;;;;8.28;73.81;95632.38;7396229;19;1806;-69
2024/03/05 05:40:16;;;;;;;;;;;;;;;8.42;73.84;95632.59;7394774;19;1854;-69
2024/03/05 05:42:44;;;;;;;;;;;;;;;8.63;73.08;95629.13;7395613;19;1088;-72
2024/03/05 05:45:13;;;;;;;;;;;;;;;8.84;72.94;95629.94;7396078;19;980;-71
2024/03/05 05:47:50;;;;;;;;;;;;;;;9.33;71.48;95632.03;7395573;19;1102;-70
2024/03/05 05:50:25;;;;;;;;;;;;;;;10.03;69.20;95632.19;7395382;19;1125;-66
2024/03/05 05:52:54;;;;;;;;;;;;;;;10.85;66.25;95640.22;7395329;19;1029;-69
2024/03/05 05:55:26;;;;;;;;;;;;;;;11.69;63.17;95642.66;7395274;19;1099;-69
2024/03/05 05:57:55;;;;;;;;;;;;;;;12.05;61.10;95635.38;7395138;19;1198;-69
2024/03/05 06:00:31;;;;;;;;;;;;;;;11.97;60.28;95639.28;7394141;19;1896;-72
2024/03/05 06:03:00;;;;;;;;;;;;;;;11.74;60.64;95638.84;7394989;19;1255;-69
2024/03/05 06:05:31;;;;;;;;;;;;;;;11.68;61.48;95638.34;7395010;19;1022;-67
2024/03/05 06:08:01;;;;;;;;;;;;;;;11.59;61.45;95635.31;7395082;19;1035;-70
2024/03/05 06:10:32;;;;;;;;;;;;;;;11.36;62.15;95631.38;7394873;19;1135;-73
2024/03/05 06:13:01;;;;;;;;;;;;;;;11.30;62.92;95629.09;7394828;19;1025;-71
2024/03/05 06:15:30;;;;;;;;;;;;;;;11.36;62.86;95628.75;7395198;19;1019;-70
2024/03/05 06:17:59;;;;;;;;;;;;;;;11.34;62.62;95630.59;7394654;19;1120;-69
2024/03/05 06:20:29;;;;;;;;;;;;;;;11.27;63.03;95627.50;7393710;19;1845;-71
2024/03/05 06:23:00;;;;;;;;;;;;;;;11.29;63.69;95632.66;7393832;19;1830;-71
2024/03/05 06:25:29;;;;;;;;;;;;;;;11.46;63.41;95622.06;7394218;19;1021;-69
2024/03/05 06:28:01;;;;;;;;;;;;;;;12.34;62.74;95612.72;7394382;19;1215;-65
2024/03/05 06:30:30;;;;;;;;;;;;;;;13.44;58.50;95627.03;7394800;19;1039;-70
2024/03/05 06:32:58;;;;;;;;;;;;;;;13.94;57.18;95623.88;7394696;19;1003;-65
2024/03/05 06:35:29;;;;;;;;;;;;;;;14.39;54.87;95626.16;7394643;19;1024;-71
2024/03/05 06:37:58;;;;;;;;;;;;;;;14.23;55.10;95626.34;7394116;19;1084;-73
2024/03/05 06:40:26;;;;;;;;;;;;;;;14.34;55.15;95615.09;7393212;19;1857;-70
2024/03/05 06:43:03;;;;;;;;;;;;;;;14.85;53.88;95618.69;7394309;19;1900;-67
2024/03/05 06:45:34;;;;;;;;;;;;;;;15.74;51.30;95621.16;7394406;19;1075;-65
2024/03/05 06:48:07;;;;;;;;;;;;;;;16.46;49.54;95623.81;7392314;19;1949;-71
2024/03/05 06:50:41;;;;;;;;;;;;;;;16.84;48.59;95620.97;7393893;19;1057;-69
2024/03/05 06:58:32;;;;;;;;;;;;;;;17.63;45.82;95627.97;7393633;19;841;-65
2024/03/05 07:01:07;;;;;;;;;;;;;;;18.00;44.58;95621.47;7392179;19;1845;-70
2024/03/05 07:03:36;;;;;;;;;;;;;;;17.32;43.52;95625.16;7393929;19;957;-73
2024/03/05 07:06:07;;;;;;;;;;;;;;;17.25;44.88;95630.09;7393747;19;1929;-67
2024/03/05 07:08:38;;;;;;;;;;;;;;;17.33;44.01;95640.06;7392417;19;1184;-67
2024/03/05 07:11:08;;;;;;;;;;;;;;;16.25;45.32;95634.19;7393788;19;1039;-64
2024/03/05 07:13:37;;;;;;;;;;;;;;;14.85;49.19;95637.13;7393651;19;949;-69
2024/03/05 07:16:09;;;;;;;;;;;;;;;14.25;50.67;95635.84;7393103;19;1063;-65
2024/03/05 07:18:38;;;;;;;;;;;;;;;13.95;51.82;95628.19;7393498;19;1051;-71
2024/03/05 07:21:07;;;;;;;;;;;;;;;13.46;53.57;95628.63;7391934;19;1892;-69
2024/03/05 07:23:35;;;;;;;;;;;;;;;13.07;54.64;95622.34;7393366;19;985;-68
2024/03/05 07:26:04;;;;;;;;;;;;;;;12.76;55.89;95617.22;7393577;19;1685;-69
2024/03/05 07:28:32;;;;;;;;;;;;;;;12.80;56.67;95612.63;7392711;19;1127;-70
2024/03/05 07:31:01;;;;;;;;;;;;;;;13.19;56.60;95621.59;7393035;19;1924;-73
2024/03/05 07:33:33;;;;;;;;;;;;;;;13.47;55.12;95618.97;7393101;19;1025;-70
2024/03/05 07:36:02;;;;;;;;;;;;;;;13.52;54.53;95622.19;7395729;19;1028;-64
2024/03/05 07:38:31;;;;;;;;;;;;;;;13.55;53.77;95623.78;7400510;19;1656;-66
2024/03/05 07:40:59;;;;;;;;;;;;;;;13.73;53.61;95622.56;7397663;19;1826;-70
2024/03/05 07:43:27;;;;;;;;;;;;;;;13.92;53.03;95625.75;7399927;19;1846;-68
2024/03/05 07:45:56;;;;;;;;;;;;;;;13.66;53.56;95618.66;7400127;19;1026;-70
2024/03/05 07:48:24;;;;;;;;;;;;;;;13.58;54.43;95613.88;7399802;19;1942;-68
2024/03/05 07:50:55;;;;;;;;;;;;;;;13.55;53.72;95623.78;7399907;19;953;-69
2024/03/05 07:53:24;;;;;;;;;;;;;;;13.74;53.58;95621.63;7399308;19;1139;-67
2024/03/05 07:55:53;;;;;;;;;;;;;;;13.90;53.35;95617.97;7399202;19;1041;-67
2024/03/05 07:58:22;;;;;;;;;;;;;;;14.24;53.09;95617.53;7399526;19;947;-68
2024/03/05 08:00:50;;;;;;;;;;;;;;;14.43;52.24;95619.75;7397362;19;1847;-70
2024/03/05 08:03:34;;;;;;;;;;;;;;;14.40;52.17;95626.06;7398852;19;1793;-68
2024/03/05 08:06:06;;;;;;;;;;;;;;;14.08;52.83;95620.31;7398772;19;1025;-70
2024/03/05 08:08:34;;;;;;;;;;;;;;;13.80;53.33;95625.63;7397791;19;1110;-69
2024/03/05 08:11:02;;;;;;;;;;;;;;;13.77;54.01;95628.47;7399343;19;1065;-65
2024/03/05 08:13:33;;;;;;;;;;;;;;;13.55;53.93;95622.00;7398635;19;1081;-71
2024/03/05 08:16:04;;;;;;;;;;;;;;;13.44;54.40;95622.66;7398636;19;1017;-67
2024/03/05 08:18:32;;;;;;;;;;;;;;;13.37;55.37;95614.31;7398390;19;1029;-73
2024/03/05 08:21:01;;;;;;;;;;;;;;;13.26;55.45;95615.00;7397200;19;1845;-69
2024/03/05 08:23:32;;;;;;;;;;;;;;;12.94;56.38;95603.91;7398721;19;1777;-67
2024/03/05 08:26:00;;;;;;;;;;;;;;;13.24;56.53;95606.38;7398457;19;1106;-72
2024/03/05 08:28:29;;;;;;;;;;;;;;;13.51;56.42;95607.34;7398599;19;1902;-69
2024/03/05 08:30:57;;;;;;;;;;;;;;;13.69;54.96;95610.56;7398496;19;1906;-70
2024/03/05 08:33:28;;;;;;;;;;;;;;;13.84;55.25;95618.38;7398254;19;1819;-71
2024/03/05 08:35:56;;;;;;;;;;;;;;;13.29;56.27;95616.59;7398394;19;1024;-69
2024/03/05 08:38:25;;;;;;;;;;;;;;;12.62;58.81;95616.28;7398071;19;1824;-72
2024/03/05 08:40:57;;;;;;;;;;;;;;;11.91;61.18;95618.69;7396599;19;1903;-67
2024/03/05 08:43:26;;;;;;;;;;;;;;;11.43;63.14;95619.63;7398052;19;976;-66
2024/03/05 08:45:54;;;;;;;;;;;;;;;11.14;64.97;95631.72;7397942;19;1006;-67
2024/03/05 08:48:23;;;;;;;;;;;;;;;10.23;69.46;95629.41;7397288;19;1811;-67
2024/03/05 08:50:51;;;;;;;;;;;;;;;9.93;71.40;95627.41;7397739;19;1019;-65
2024/03/05 08:53:19;;;;;;;;;;;;;;;9.68;73.35;95631.25;7397664;19;956;-72
2024/03/05 08:55:48;;;;;;;;;;;;;;;9.88;73.74;95624.19;7397277;19;1040;-66
2024/03/05 08:58:19;;;;;;;;;;;;;;;9.95;73.06;95629.94;7397580;19;1040;-71
2024/03/05 09:00:47;;;;;;;;;;;;;;;9.83;73.60;95636.63;7395988;19;1853;-67
2024/03/05 09:03:16;;;;;;;;;;;;;;;9.70;74.38;95629.38;7396996;19;1121;-67
2024/03/05 09:05:44;;;;;;;;;;;;;;;9.65;74.89;95640.97;7396978;19;1123;-69
2024/03/05 09:08:13;;;;;;;;;;;;;;;9.70;74.84;95631.19;7396596;19;1822;-71
2024/03/05 09:10:44;;;;;;;;;;;;;;;10.05;74.72;95630.34;7397261;19;1010;-68
2024/03/05 09:13:12;;;;;;;;;;;;;;;10.31;72.74;95631.63;7396724;19;1086;-70
2024/03/05 09:15:43;;;;;;;;;;;;;;;10.48;71.18;95628.16;7396707;19;1056;-70
2024/03/05 09:18:13;;;;;;;;;;;;;;;10.64;70.26;95629.97;7396541;19;1143;-70
2024/03/05 09:20:42;;;;;;;;;;;;;;;10.76;70.19;95628.47;7396081;19;1853;-72
2024/03/05 09:23:11;;;;;;;;;;;;;;;10.94;69.10;95625.78;7396438;19;1042;-70
2024/03/05 09:25:41;;;;;;;;;;;;;;;11.23;68.11;95632.03;7396317;19;1131;-69
2024/03/05 09:28:09;;;;;;;;;;;;;;;11.32;67.41;95641.16;7396197;19;1089;-67
2024/03/05 09:30:38;;;;;;;;;;;;;;;11.68;66.98;95646.22;7396580;19;1811;-69
2024/03/05 09:33:10;;;;;;;;;;;;;;;11.87;65.43;95654.69;7396426;19;1816;-67
2024/03/05 09:35:39;;;;;;;;;;;;;;;11.78;65.10;95654.38;7396091;19;1021;-70
2024/03/05 09:38:07;;;;;;;;;;;;;;;11.36;66.40;95647.94;7396232;19;1927;-67
2024/03/05 09:40:36;;;;;;;;;;;;;;;10.98;67.73;95645.63;7395653;19;1842;-73
2024/03/05 09:43:06;;;;;;;;;;;;;;;10.73;69.17;95644.34;7395721;19;956;-67
2024/03/05 09:45:38;;;;;;;;;;;;;;;10.43;70.55;95648.44;7396125;19;1056;-67
2024/03/05 09:48:11;;;;;;;;;;;;;;;10.40;71.33;95645.13;7395643;19;1099;-67
2024/03/05 09:50:39;;;;;;;;;;;;;;;10.42;70.78;95651.13;7396070;19;951;-70
2024/03/05 09:53:08;;;;;;;;;;;;;;;10.46;71.14;95645.72;7395448;19;1025;-66
2024/03/05 09:55:36;;;;;;;;;;;;;;;10.34;70.81;95648.91;7395459;19;1029;-71
2024/03/05 09:58:06;;;;;;;;;;;;;;;10.31;71.12;95639.47;7393575;19;888;-70
2024/03/05 10:00:37;;;;;;;;;;;;;;;10.31;71.44;95633.38;7394991;19;1837;-69
2024/03/05 10:03:06;;;;;;;;;;;;;;;10.48;70.99;95630.75;7395473;19;996;-65
2024/03/05 10:05:37;;;;;;;;;;;;;;;10.65;70.15;95631.66;7395018;19;1060;-69
2024/03/05 10:08:06;;;;;;;;;;;;;;;10.66;69.56;95635.97;7394482;19;1136;-68
2024/03/05 10:10:37;;;;;;;;;;;;;;;10.58;69.41;95638.13;7394916;19;1152;-67
2024/03/05 10:13:06;;;;;;;;;;;;;;;10.55;70.08;95636.53;7394733;19;1015;-66
2024/03/05 10:15:37;;;;;;;;;;;;;;;10.48;70.11;95637.78;7395246;19;1024;-69
2024/03/05 10:18:06;;;;;;;;;;;;;;;10.39;70.72;95646.06;7394734;19;1057;-70
2024/03/05 10:20:38;;;;;;;;;;;;;;;10.33;70.82;95632.38;7394165;19;1849;-72
2024/03/05 10:23:07;;;;;;;;;;;;;;;10.38;70.88;95631.31;7394925;19;987;-69
2024/03/05 10:25:36;;;;;;;;;;;;;;;10.30;71.84;95634.31;7394478;19;1049;-66
2024/03/05 10:28:08;;;;;;;;;;;;;;;10.18;72.80;95635.78;7394758;19;1659;-70
2024/03/05 10:30:37;;;;;;;;;;;;;;;10.25;72.20;95631.94;7394341;19;1204;-69
2024/03/05 10:33:07;;;;;;;;;;;;;;;10.19;72.03;95645.31;7394685;19;1030;-70
2024/03/05 10:35:38;;;;;;;;;;;;;;;9.98;73.10;95641.09;7394764;19;1002;-73
2024/03/05 10:38:08;;;;;;;;;;;;;;;9.88;73.54;95637.25;7394569;19;1008;-71
2024/03/05 10:40:37;;;;;;;;;;;;;;;9.83;74.49;95642.72;7393659;19;1858;-72
2024/03/05 10:43:07;;;;;;;;;;;;;;;9.56;77.00;95642.28;7393978;19;1037;-65
2024/03/05 10:45:37;;;;;;;;;;;;;;;9.46;76.89;95647.94;7393965;19;1017;-71
2024/03/05 10:48:07;;;;;;;;;;;;;;;9.67;77.36;95640.00;7393893;19;1089;-66
2024/03/05 10:50:39;;;;;;;;;;;;;;;9.83;75.29;95639.25;7393832;19;981;-66
2024/03/05 10:53:09;;;;;;;;;;;;;;;9.79;74.57;95642.94;7394137;19;954;-71
2024/03/05 10:55:38;;;;;;;;;;;;;;;9.90;75.11;95648.47;7393975;19;1801;-69
2024/03/05 10:58:26;;;;;;;;;;;;;;;9.92;74.68;95654.47;7394094;19;1040;-69
2024/03/05 11:00:54;;;;;;;;;;;;;;;9.85;74.06;95637.41;7393399;19;1849;-69
2024/03/05 11:03:31;;;;;;;;;;;;;;;9.89;73.80;95651.16;7391918;19;1035;-70
2024/03/05 11:06:03;;;;;;;;;;;;;;;9.72;75.75;95644.97;7393396;19;1095;-68
2024/03/05 11:08:35;;;;;;;;;;;;;;;9.86;76.27;95650.41;7393086;19;1046;-69
2024/03/05 11:11:06;;;;;;;;;;;;;;;9.94;74.78;95649.16;7399284;19;1120;-67
2024/03/05 11:13:36;;;;;;;;;;;;;;;9.95;74.99;95637.78;7400705;19;1172;-69
2024/03/05 11:16:05;;;;;;;;;;;;;;;9.96;74.62;95642.06;7400540;19;1254;-67
2024/03/05 11:18:34;;;;;;;;;;;;;;;10.16;74.63;95635.88;7401025;19;976;-68
2024/03/05 11:21:08;;;;;;;;;;;;;;;10.34;74.33;95633.22;7399944;19;1908;-68
2024/03/05 11:23:39;;;;;;;;;;;;;;;10.22;72.63;95639.94;7400797;19;1031;-69
2024/03/05 11:26:07;;;;;;;;;;;;;;;10.28;72.35;95633.53;7400251;19;1116;-67
2024/03/05 11:28:36;;;;;;;;;;;;;;;10.32;72.20;95625.47;7400161;19;1053;-67
2024/03/05 11:31:11;;;;;;;;;;;;;;;10.49;72.14;95626.38;7400108;19;1072;-67
2024/03/05 11:33:40;;;;;;;;;;;;;;;10.55;70.81;95625.22;7399970;19;1147;-67
2024/03/05 11:36:24;;;;;;;;;;;;;;;10.65;70.93;95622.97;7400375;19;949;-73
2024/03/05 11:39:00;;;;;;;;;;;;;;;10.78;70.48;95626.63;7399922;19;1964;-70
2024/03/05 11:41:29;;;;;;;;;;;;;;;10.76;70.15;95627.63;7398594;19;1849;-68
2024/03/05 11:43:57;;;;;;;;;;;;;;;10.46;71.50;95621.31;7399741;19;1013;-67
2024/03/05 11:46:40;;;;;;;;;;;;;;;10.57;71.53;95618.97;7399656;19;1046;-68
2024/03/05 11:49:09;;;;;;;;;;;;;;;10.60;71.28;95624.03;7399558;19;1788;-64
2024/03/05 11:51:41;;;;;;;;;;;;;;;10.44;71.33;95607.44;7400278;19;1753;-67
2024/03/05 11:54:11;;;;;;;;;;;;;;;10.48;71.68;95607.22;7399311;19;1029;-67
2024/03/05 11:56:41;;;;;;;;;;;;;;;10.60;71.92;95607.53;7399659;19;1007;-70
2024/03/05 11:59:11;;;;;;;;;;;;;;;10.48;71.82;95611.63;7400036;19;1688;-69
2024/03/05 12:01:44;;;;;;;;;;;;;;;10.42;71.96;95617.16;7398374;19;1845;-72
2024/03/05 12:04:13;;;;;;;;;;;;;;;10.28;72.79;95623.09;7398985;19;1132;-70
2024/03/05 12:06:44;;;;;;;;;;;;;;;10.39;73.58;95619.91;7399412;19;1067;-68
2024/03/05 12:09:18;;;;;;;;;;;;;;;10.52;72.09;95630.59;7397240;19;1123;-67
2024/03/05 12:12:02;;;;;;;;;;;;;;;10.58;72.35;95630.28;7398702;19;1126;-68
2024/03/05 12:14:31;;;;;;;;;;;;;;;10.31;71.88;95634.25;7398657;19;1116;-64
2024/03/05 12:17:02;;;;;;;;;;;;;;;10.34;72.37;95634.09;7396103;19;992;-70
2024/03/05 12:19:30;;;;;;;;;;;;;;;10.40;72.23;95632.91;7398445;19;1029;-66
2024/03/05 12:22:02;;;;;;;;;;;;;;;10.46;71.60;95630.03;7395619;19;1888;-69
2024/03/05 12:24:31;;;;;;;;;;;;;;;10.58;71.83;95636.38;7398757;19;1025;-68
2024/03/05 12:27:00;;;;;;;;;;;;;;;10.49;70.42;95637.72;7398649;19;985;-70
2024/03/05 12:29:34;;;;;;;;;;;;;;;10.22;72.09;95638.16;7398580;19;1028;-68
2024/03/05 12:32:06;;;;;;;;;;;;;;;10.16;72.82;95642.84;7398564;19;1031;-70
2024/03/05 12:34:35;;;;;;;;;;;;;;;10.21;72.69;95646.09;7398039;19;1061;-67
2024/03/05 12:37:07;;;;;;;;;;;;;;;10.13;72.63;95651.69;7397915;19;1143;-72
2024/03/05 12:39:36;;;;;;;;;;;;;;;9.92;73.74;95657.06;7398404;19;1031;-70
2024/03/05 12:42:06;;;;;;;;;;;;;;;9.86;74.87;95647.78;7396639;19;1845;-68
2024/03/05 12:44:35;;;;;;;;;;;;;;;9.77;76.14;95653.44;7398168;19;1041;-69
2024/03/05 12:47:10;;;;;;;;;;;;;;;9.65;76.05;95654.91;7398040;19;1048;-70
2024/03/05 12:49:40;;;;;;;;;;;;;;;9.71;76.62;95653.75;7397522;19;1041;-72
2024/03/05 12:52:11;;;;;;;;;;;;;;;9.73;75.80;95651.91;7397506;19;1056;-68
2024/03/05 12:54:40;;;;;;;;;;;;;;;9.83;75.35;95654.91;7397371;19;1103;-71
2024/03/05 12:57:11;;;;;;;;;;;;;;;9.96;76.13;95657.75;7397649;19;964;-69
2024/03/05 12:59:40;;;;;;;;;;;;;;;10.06;75.23;95660.78;7397166;19;1104;-64
2024/03/05 13:02:08;;;;;;;;;;;;;;;10.26;74.20;95661.53;7396370;19;1854;-70
2024/03/05 13:04:37;;;;;;;;;;;;;;;10.24;72.80;95665.06;7397061;19;1145;-69
2024/03/05 13:07:05;;;;;;;;;;;;;;;10.10;72.86;95660.53;7397193;19;1784;-66
2024/03/05 13:09:38;;;;;;;;;;;;;;;9.89;74.00;95665.06;7395451;19;1323;-67
2024/03/05 13:12:07;;;;;;;;;;;;;;;9.90;74.80;95664.13;7396804;19;1112;-70
2024/03/05 13:14:35;;;;;;;;;;;;;;;9.96;74.39;95673.44;7397155;19;1037;-71
2024/03/05 13:17:06;;;;;;;;;;;;;;;9.99;73.73;95671.53;7396425;19;1131;-68
2024/03/05 13:19:35;;;;;;;;;;;;;;;10.04;73.42;95671.28;7397000;19;1035;-64
2024/03/05 13:22:03;;;;;;;;;;;;;;;10.10;73.14;95667.53;7395605;19;1842;-67
2024/03/05 13:24:32;;;;;;;;;;;;;;;10.15;71.91;95668.16;7396517;19;1140;-71